Terminal Aerodrome Forecast
Issued by NWS Wilmington, NC

Current Version | Previous Version | Graphics & Text | Print | Product List | Glossary Off
Versions: 1 2 3 4 5 6 7 8 9 10 11 12 13 14 15

668
FTUS42 KILM 261128
TAFMYR
TAF
KMYR 261128Z 2612/2712 26007KT P6SM SCT025
     FM261600 19015KT P6SM SCT030
     FM270300 22007KT P6SM SKC=

USA.gov is the U.S. government's official web portal to all federal, state and local government web resources and services.